createdAt,value
2022-09-20T00:04:59.551Z,1.20
2022-09-20T00:10:01.459Z,1.67
2022-09-20T00:15:03.666Z,1.00
2022-09-20T00:20:05.786Z,3.10
2022-09-20T00:25:08.578Z,1.92
2022-09-20T00:30:10.854Z,1.55
2022-09-20T00:35:12.572Z,1.60
2022-09-20T00:40:17.965Z,2.03
2022-09-20T00:45:21.117Z,2.72
2022-09-20T00:50:46.028Z,3.30
2022-09-20T01:00:53.979Z,2.38
2022-09-20T01:05:56.249Z,1.65
2022-09-20T01:10:58.234Z,1.20
2022-09-20T01:16:02.548Z,1.20
2022-09-20T01:21:06.243Z,1.40
2022-09-20T01:26:29.211Z,1.38
2022-09-20T01:31:36.335Z,1.20
2022-09-20T01:37:06.838Z,1.42
2022-09-20T01:42:12.082Z,1.60
2022-09-20T01:47:38.461Z,1.10
2022-09-20T01:52:48.854Z,1.45
2022-09-20T01:58:33.759Z,1.27
2022-09-20T02:03:54.489Z,1.30
2022-09-20T02:09:24.194Z,1.10
2022-09-20T02:14:50.031Z,1.30
2022-09-20T02:20:08.469Z,1.20
2022-09-20T02:25:53.001Z,1.30
2022-09-20T02:31:20.225Z,1.30
2022-09-20T02:36:31.152Z,1.40
2022-09-20T02:42:12.840Z,1.45
2022-09-20T02:47:27.987Z,1.40
2022-09-20T02:52:54.287Z,1.48
2022-09-20T02:58:21.351Z,6.63
2022-09-20T03:03:42.916Z,2.63
2022-09-20T03:09:08.453Z,1.88
2022-09-20T03:14:23.126Z,2.80
2022-09-20T03:25:22.879Z,2.97
2022-09-20T03:30:46.477Z,2.65
2022-09-20T03:35:50.974Z,2.25
2022-09-20T03:41:17.299Z,2.53
2022-09-20T03:46:29.006Z,3.17
2022-09-20T03:51:48.780Z,2.95
2022-09-20T03:57:11.626Z,3.13
2022-09-20T04:02:41.024Z,2.63
2022-09-20T04:08:07.858Z,2.67
2022-09-20T04:13:21.609Z,2.78
2022-09-20T04:18:45.959Z,3.10
2022-09-20T04:23:52.312Z,3.97
2022-09-20T04:28:58.450Z,3.70
2022-09-20T04:34:02.278Z,3.10
2022-09-20T04:39:32.561Z,3.50
2022-09-20T04:44:53.873Z,3.58
2022-09-20T04:50:11.516Z,3.50
2022-09-20T04:55:31.854Z,4.10
2022-09-20T05:00:43.376Z,6.03
2022-09-20T05:06:14.346Z,3.40
2022-09-20T05:11:27.846Z,3.05
2022-09-20T05:17:07.987Z,3.60
2022-09-20T05:22:48.155Z,4.07
2022-09-20T05:28:08.802Z,4.03
2022-09-20T05:33:22.588Z,4.38
2022-09-20T05:38:45.648Z,4.27
2022-09-20T05:44:01.675Z,4.55
2022-09-20T05:49:37.049Z,6.55
2022-09-20T05:55:01.288Z,5.40
2022-09-20T06:00:15.823Z,5.13
2022-09-20T06:05:52.956Z,4.22
2022-09-20T06:11:23.233Z,4.00
2022-09-20T06:16:40.483Z,4.15
2022-09-20T06:21:53.483Z,5.25
2022-09-20T06:26:58.848Z,5.90
2022-09-20T06:32:01.063Z,6.40
2022-09-20T06:37:36.696Z,5.55
2022-09-20T06:42:39.128Z,3.50
2022-09-20T06:47:41.018Z,4.50
2022-09-20T06:52:45.031Z,3.72
2022-09-20T06:57:47.237Z,2.85
2022-09-20T07:02:48.928Z,2.50
2022-09-20T07:07:50.661Z,2.97
2022-09-20T07:12:55.268Z,3.80
2022-09-20T07:17:57.029Z,4.45
2022-09-20T07:22:59.331Z,3.83
2022-09-20T07:28:01.391Z,3.03
2022-09-20T07:33:03.092Z,2.70
2022-09-20T07:38:07.794Z,2.47
2022-09-20T07:43:09.512Z,2.38
2022-09-20T07:48:11.198Z,2.20
2022-09-20T07:53:12.891Z,1.90
2022-09-20T07:58:14.577Z,2.00
2022-09-20T08:03:16.415Z,2.45
2022-09-20T08:08:19.047Z,3.60
2022-09-20T08:18:48.792Z,2.85
2022-09-20T08:23:50.799Z,2.40
2022-09-20T08:28:55.415Z,2.22
2022-09-20T08:33:58.942Z,2.28
2022-09-20T08:44:35.049Z,1.83
2022-09-20T08:49:38.061Z,1.55
2022-09-20T08:54:43.290Z,1.60
2022-09-20T08:59:45.242Z,2.10
2022-09-20T09:04:49.810Z,1.55
2022-09-20T09:09:54.525Z,1.25
2022-09-20T09:15:19.562Z,1.90
2022-09-20T09:20:23.489Z,1.98
2022-09-20T09:25:34.192Z,1.52
2022-09-20T09:30:38.463Z,1.70
2022-09-20T09:40:53.826Z,1.10
2022-09-20T09:46:17.419Z,1.35
2022-09-20T09:51:23.103Z,1.27
2022-09-20T09:56:51.110Z,1.00
2022-09-20T10:02:15.953Z,0.90
2022-09-20T10:07:24.841Z,1.98
2022-09-20T10:12:49.015Z,1.27
2022-09-20T10:17:58.580Z,1.58
2022-09-20T10:23:51.377Z,1.55
2022-09-20T10:29:08.419Z,1.75
2022-09-20T10:34:46.048Z,1.40
2022-09-20T10:40:17.820Z,1.30
2022-09-20T10:51:52.937Z,0.85
2022-09-20T10:57:18.217Z,0.82
2022-09-20T11:02:46.468Z,0.80
2022-09-20T11:07:59.031Z,0.77
2022-09-20T11:13:06.254Z,0.80
2022-09-20T11:18:20.905Z,1.00
2022-09-20T11:23:37.382Z,0.98
2022-09-20T11:28:49.855Z,0.60
2022-09-20T11:33:57.733Z,0.80
2022-09-20T11:39:05.912Z,0.90
2022-09-20T11:44:14.956Z,0.70
2022-09-20T11:49:23.786Z,1.00
2022-09-20T11:55:06.875Z,0.88
2022-09-20T12:00:10.157Z,0.68
2022-09-20T12:05:38.013Z,0.70
2022-09-20T12:10:40.429Z,0.88
2022-09-20T12:15:42.601Z,0.85
2022-09-20T12:20:44.992Z,1.05
2022-09-20T12:26:03.139Z,0.98
2022-09-20T12:31:37.990Z,0.70
2022-09-20T12:36:56.241Z,0.90
2022-09-20T12:42:02.678Z,0.50
2022-09-20T12:47:09.918Z,0.80
2022-09-20T12:53:02.409Z,0.65
2022-09-20T12:58:10.994Z,0.70
2022-09-20T13:03:16.705Z,0.60
2022-09-20T13:08:25.661Z,0.80
2022-09-20T13:13:41.475Z,0.70
2022-09-20T13:18:43.880Z,1.65
2022-09-20T13:23:50.687Z,2.00
2022-09-20T13:28:55.228Z,1.77
2022-09-20T13:34:13.939Z,1.08
2022-09-20T13:39:36.095Z,1.58
2022-09-20T13:44:38.698Z,0.60
2022-09-20T13:49:43.109Z,0.70
2022-09-20T13:54:44.815Z,0.60
2022-09-20T13:59:47.086Z,0.65
2022-09-20T14:04:50.464Z,0.80
2022-09-20T14:09:52.610Z,0.80
2022-09-20T14:14:54.981Z,1.05
2022-09-20T14:19:57.594Z,0.80
2022-09-20T14:25:27.783Z,0.70
2022-09-20T14:30:36.870Z,0.60
2022-09-20T14:35:46.151Z,0.60
2022-09-20T14:40:49.171Z,0.40
2022-09-20T14:46:01.234Z,0.32
2022-09-20T14:51:21.307Z,0.50
2022-09-20T14:56:39.457Z,0.30
2022-09-20T15:01:44.980Z,0.60
2022-09-20T15:06:46.826Z,0.77
2022-09-20T15:12:00.381Z,0.60
2022-09-20T15:17:02.248Z,1.10
2022-09-20T15:22:04.144Z,1.17
2022-09-20T15:27:06.693Z,1.00
2022-09-20T15:32:10.555Z,0.88
2022-09-20T15:37:12.240Z,0.90
2022-09-20T15:42:13.935Z,0.68
2022-09-20T15:47:16.230Z,0.70
2022-09-20T15:52:24.317Z,0.75
2022-09-20T15:57:26.969Z,0.80
2022-09-20T16:02:29.239Z,0.70
2022-09-20T16:07:31.902Z,0.70
2022-09-20T16:12:33.631Z,1.80
2022-09-20T16:17:53.994Z,1.60
2022-09-20T16:22:55.827Z,5.90
2022-09-20T16:27:58.236Z,1.48
2022-09-20T16:33:05.669Z,1.45
2022-09-20T16:38:07.467Z,1.00
2022-09-20T16:43:09.306Z,0.85
2022-09-20T16:48:11.530Z,4.00
2022-09-20T16:53:13.298Z,1.25
2022-09-20T16:58:15.545Z,1.67
2022-09-20T17:03:17.389Z,0.90
2022-09-20T17:08:19.061Z,0.95
2022-09-20T17:13:20.870Z,2.03
2022-09-20T17:18:22.570Z,1.40
2022-09-20T17:23:24.261Z,1.90
2022-09-20T17:28:26.094Z,1.45
2022-09-20T17:33:30.261Z,1.50
2022-09-20T17:38:33.773Z,1.20
2022-09-20T17:43:36.806Z,0.70
2022-09-20T17:48:39.403Z,0.90
2022-09-20T17:53:41.116Z,0.75
2022-09-20T17:58:43.040Z,0.60
2022-09-20T18:03:46.550Z,0.60
2022-09-20T18:09:02.669Z,0.70
2022-09-20T18:14:06.823Z,0.50
2022-09-20T18:19:09.013Z,0.50
2022-09-20T18:24:12.069Z,0.70
2022-09-20T18:29:17.767Z,0.70
2022-09-20T18:34:22.749Z,0.50
2022-09-20T18:39:29.340Z,0.63
2022-09-20T18:44:33.915Z,1.00
2022-09-20T18:49:35.917Z,3.42
2022-09-20T18:54:40.947Z,4.22
2022-09-20T18:59:53.864Z,0.50
2022-09-20T19:05:06.737Z,0.70
2022-09-20T19:10:41.468Z,0.60
2022-09-20T19:16:01.317Z,0.57
2022-09-20T19:21:27.523Z,0.50
2022-09-20T19:26:31.157Z,0.60
2022-09-20T19:31:34.373Z,0.70
2022-09-20T19:36:53.885Z,0.45
2022-09-20T19:42:25.877Z,0.82
2022-09-20T19:47:54.843Z,0.85
2022-09-20T19:52:56.790Z,1.52
2022-09-20T19:57:59.072Z,8.07
2022-09-20T20:03:01.222Z,1.50
2022-09-20T20:08:30.694Z,1.40
2022-09-20T20:14:14.698Z,0.70
2022-09-20T20:19:37.549Z,1.00
2022-09-20T20:24:52.157Z,0.65
2022-09-20T20:29:56.977Z,0.70
2022-09-20T20:34:58.664Z,0.70
2022-09-20T20:40:00.568Z,0.60
2022-09-20T20:45:02.290Z,0.70
2022-09-20T20:50:04.848Z,0.80
2022-09-20T20:55:06.890Z,1.10
2022-09-20T21:00:09.247Z,0.70
2022-09-20T21:05:10.937Z,0.80
2022-09-20T21:10:13.546Z,0.60
2022-09-20T21:15:15.297Z,0.75
2022-09-20T21:20:17.048Z,0.70
2022-09-20T21:25:18.770Z,0.80
2022-09-20T21:30:20.535Z,0.60
2022-09-20T21:35:24.037Z,0.60
2022-09-20T21:40:26.856Z,0.60
2022-09-20T21:45:29.517Z,0.50
2022-09-20T21:50:31.206Z,0.50
2022-09-20T21:55:34.143Z,0.60
2022-09-20T22:00:35.878Z,0.60
2022-09-20T22:05:37.628Z,0.70
2022-09-20T22:10:39.372Z,0.60
2022-09-20T22:15:42.589Z,0.50
2022-09-20T22:20:45.532Z,0.63
2022-09-20T22:25:47.221Z,0.70
2022-09-20T22:30:49.015Z,0.60
2022-09-20T22:35:50.759Z,0.80
2022-09-20T22:40:57.211Z,0.70
2022-09-20T22:46:07.803Z,0.60
2022-09-20T22:51:15.276Z,0.70
2022-09-20T22:56:21.149Z,0.75
2022-09-20T23:01:29.270Z,0.60
2022-09-20T23:06:54.772Z,0.68
2022-09-20T23:11:56.609Z,0.50
2022-09-20T23:16:58.320Z,0.70
2022-09-20T23:22:00.023Z,0.63
2022-09-20T23:27:01.737Z,1.02
2022-09-20T23:32:03.515Z,0.80
2022-09-20T23:37:06.767Z,0.70
2022-09-20T23:42:08.507Z,0.75
2022-09-20T23:47:10.259Z,0.65
2022-09-20T23:52:11.954Z,0.60
2022-09-20T23:57:15.190Z,0.60
